Terminal Aerodrome Forecast
Issued by NWS

Home | Current Version | Previous Version | Text Only | Print | Product List | Glossary On
Versions: 1 2 3 4 5 6 7 8 9 10 11 12 13 14 15 16 17
000
FTAK31 PAJN 100543
TAFAYA
TAF
PAYA 100543Z 1006/1106 VRB03KT P6SM BKN100 OVC200 WS015/07035KT
     FM101000 07006KT P6SM VCSH SCT050 OVC100 WS015/06035KT
     FM101200 06010KT 4SM -RA BR SCT025 OVC050 WS020/08035KT
     FM101600 09010KT 4SM -RA BR SCT015 OVC025
     FM102100 12012KT P6SM -SHRA SCT015 BKN025 OVC050
      AMD LTD TO CLD VIS AND WIND 1006/1009=

USA.gov is the U.S. government's official web portal to all federal, state and local government web resources and services.